createdAt,value
2023-04-11T00:00:57.454Z,7.50
2023-04-11T00:03:25.274Z,7.50
2023-04-11T00:05:52.464Z,7.60
2023-04-11T00:08:19.463Z,7.60
2023-04-11T00:10:46.442Z,7.60
2023-04-11T00:13:13.406Z,7.60
2023-04-11T00:15:40.504Z,7.70
2023-04-11T00:18:07.611Z,7.70
2023-04-11T00:20:34.678Z,7.70
2023-04-11T00:23:01.833Z,7.80
2023-04-11T00:25:30.156Z,7.70
2023-04-11T00:27:57.349Z,7.70
2023-04-11T00:30:24.420Z,7.60
2023-04-11T00:32:51.417Z,7.60
2023-04-11T00:35:18.397Z,7.50
2023-04-11T00:37:45.674Z,7.50
2023-04-11T00:40:16.376Z,7.40
2023-04-11T00:42:43.329Z,7.50
2023-04-11T00:45:10.784Z,7.50
2023-04-11T00:47:38.071Z,7.60
2023-04-11T00:50:05.766Z,7.50
2023-04-11T00:52:33.045Z,7.50
2023-04-11T00:55:03.015Z,7.40
2023-04-11T00:57:30.923Z,7.50
2023-04-11T00:59:58.705Z,7.50
2023-04-11T01:02:26.767Z,7.50
2023-04-11T01:04:54.161Z,7.50
2023-04-11T01:07:23.190Z,7.40
2023-04-11T01:09:50.956Z,7.50
2023-04-11T01:12:18.331Z,7.40
2023-04-11T01:14:47.915Z,7.40
2023-04-11T01:17:15.610Z,7.30
2023-04-11T01:19:42.734Z,7.40
2023-04-11T01:22:13.021Z,7.40
2023-04-11T01:24:39.976Z,7.30
2023-04-11T01:27:06.910Z,7.30
2023-04-11T01:29:33.975Z,7.20
2023-04-11T01:32:00.918Z,7.20
2023-04-11T01:34:28.672Z,7.20
2023-04-11T01:36:56.014Z,7.20
2023-04-11T01:39:23.194Z,7.10
2023-04-11T01:41:50.866Z,7.10
2023-04-11T01:44:19.506Z,7.10
2023-04-11T01:46:47.601Z,7.10
2023-04-11T01:49:15.687Z,7.10
2023-04-11T01:51:42.807Z,7.10
2023-04-11T01:54:09.770Z,7.10
2023-04-11T01:56:36.715Z,7.10
2023-04-11T01:59:04.516Z,7.20
2023-04-11T02:03:58.936Z,7.20
2023-04-11T02:06:27.576Z,7.30
2023-04-11T02:08:54.945Z,7.30
2023-04-11T02:11:22.151Z,7.30
2023-04-11T02:13:49.394Z,7.30
2023-04-11T02:16:18.192Z,7.30
2023-04-11T02:18:46.385Z,7.30
2023-04-11T02:21:13.410Z,7.30
2023-04-11T02:23:40.321Z,7.20
2023-04-11T02:26:07.458Z,7.20
2023-04-11T02:28:34.631Z,7.10
2023-04-11T02:31:02.775Z,7.00
2023-04-11T02:33:30.023Z,7.00
2023-04-11T02:35:57.005Z,7.00
2023-04-11T02:38:23.992Z,6.90
2023-04-11T02:40:50.853Z,6.90
2023-04-11T02:43:17.872Z,6.90
2023-04-11T02:45:44.760Z,6.80
2023-04-11T02:48:11.628Z,6.70
2023-04-11T02:50:41.070Z,6.70
2023-04-11T02:53:08.191Z,6.60
2023-04-11T02:55:35.263Z,6.50
2023-04-11T02:58:02.339Z,6.50
2023-04-11T03:00:29.370Z,6.50
2023-04-11T03:02:57.107Z,6.40
2023-04-11T03:05:24.134Z,6.40
2023-04-11T03:07:51.338Z,6.40
2023-04-11T03:10:18.447Z,6.40
2023-04-11T03:12:45.454Z,6.30
2023-04-11T03:15:15.380Z,6.30
2023-04-11T03:17:42.472Z,6.30
2023-04-11T03:20:11.860Z,6.30
2023-04-11T03:22:39.058Z,6.30
2023-04-11T03:25:07.409Z,6.30
2023-04-11T03:27:34.389Z,6.30
2023-04-11T03:30:01.436Z,6.40
2023-04-11T03:32:28.422Z,6.30
2023-04-11T03:34:55.495Z,6.40
2023-04-11T03:37:22.405Z,6.40
2023-04-11T03:39:49.298Z,6.30
2023-04-11T03:42:16.356Z,6.40
2023-04-11T03:44:43.230Z,6.40
2023-04-11T03:47:10.219Z,6.40
2023-04-11T03:49:37.198Z,6.30
2023-04-11T03:52:04.996Z,6.30
2023-04-11T03:54:32.440Z,6.20
2023-04-11T03:56:59.386Z,6.20
2023-04-11T03:59:26.296Z,6.20
2023-04-11T04:01:53.248Z,6.20
2023-04-11T04:04:20.593Z,6.20
2023-04-11T04:06:47.559Z,6.10
2023-04-11T04:09:14.444Z,6.10
2023-04-11T04:11:41.338Z,6.00
2023-04-11T04:14:08.506Z,6.00
2023-04-11T04:16:35.553Z,6.00
2023-04-11T04:19:02.769Z,6.00
2023-04-11T04:21:32.845Z,6.00
2023-04-11T04:24:03.782Z,5.90
2023-04-11T04:26:31.498Z,5.90
2023-04-11T04:29:04.920Z,5.90
2023-04-11T04:31:34.933Z,6.00
2023-04-11T04:34:10.547Z,6.00
2023-04-11T04:36:46.647Z,6.10
2023-04-11T04:39:17.693Z,6.10
2023-04-11T04:41:58.380Z,6.10
2023-04-11T04:44:25.829Z,6.10
2023-04-11T04:46:56.893Z,6.00
2023-04-11T04:49:23.788Z,6.00
2023-04-11T04:51:50.728Z,6.00
2023-04-11T04:54:19.492Z,5.90
2023-04-11T04:56:48.365Z,5.90
2023-04-11T04:59:16.388Z,5.80
2023-04-11T05:01:43.481Z,5.80
2023-04-11T05:04:10.659Z,5.80
2023-04-11T05:06:37.809Z,5.80
2023-04-11T05:09:06.221Z,5.70
2023-04-11T05:11:33.998Z,5.50
2023-04-11T05:14:01.089Z,5.40
2023-04-11T05:16:28.109Z,5.40
2023-04-11T05:18:55.134Z,5.30
2023-04-11T05:21:22.442Z,5.40
2023-04-11T05:23:49.371Z,5.30
2023-04-11T05:26:16.286Z,5.30
2023-04-11T05:28:43.276Z,5.30
2023-04-11T05:31:11.810Z,5.20
2023-04-11T05:33:39.679Z,5.30
2023-04-11T05:36:07.188Z,5.30
2023-04-11T05:38:34.200Z,5.30
2023-04-11T05:41:01.515Z,5.30
2023-04-11T05:43:28.464Z,5.30
2023-04-11T05:45:55.569Z,5.30
2023-04-11T05:48:23.940Z,5.40
2023-04-11T05:50:51.499Z,5.40
2023-04-11T05:53:18.761Z,5.30
2023-04-11T05:55:46.047Z,5.30
2023-04-11T05:58:12.939Z,5.30
2023-04-11T06:00:39.952Z,5.30
2023-04-11T06:03:08.161Z,5.30
2023-04-11T06:05:36.018Z,5.30
2023-04-11T06:08:04.341Z,5.30
2023-04-11T06:10:31.771Z,5.30
2023-04-11T06:12:59.034Z,5.30
2023-04-11T06:15:36.307Z,5.40
2023-04-11T06:18:17.709Z,5.40
2023-04-11T06:20:47.194Z,5.40
2023-04-11T06:23:14.076Z,5.40
2023-04-11T06:25:41.178Z,5.40
2023-04-11T06:28:08.250Z,5.50
2023-04-11T06:30:35.567Z,5.60
2023-04-11T06:33:02.524Z,5.60
2023-04-11T06:35:29.449Z,5.70
2023-04-11T06:37:56.295Z,5.70
2023-04-11T06:40:23.223Z,5.80
2023-04-11T06:42:50.190Z,5.90
2023-04-11T06:45:17.162Z,5.80
2023-04-11T06:47:44.181Z,5.80
2023-04-11T06:50:11.603Z,5.90
2023-04-11T06:52:38.683Z,6.00
2023-04-11T06:55:07.239Z,6.10
2023-04-11T06:57:34.411Z,6.20
2023-04-11T07:00:01.293Z,6.30
2023-04-11T07:02:28.430Z,6.40
2023-04-11T07:04:55.658Z,6.50
2023-04-11T07:07:22.650Z,6.60
2023-04-11T07:09:49.814Z,6.60
2023-04-11T07:12:16.974Z,6.60
2023-04-11T07:14:44.013Z,6.60
2023-04-11T07:17:10.861Z,6.50
2023-04-11T07:19:38.178Z,6.60
2023-04-11T07:22:05.223Z,6.60
2023-04-11T07:24:32.189Z,6.60
2023-04-11T07:26:59.227Z,6.60
2023-04-11T07:29:26.150Z,6.70
2023-04-11T07:31:53.853Z,6.70
2023-04-11T07:34:20.778Z,6.80
2023-04-11T07:36:48.010Z,6.80
2023-04-11T07:39:15.311Z,6.90
2023-04-11T07:41:42.354Z,7.00
2023-04-11T07:44:09.731Z,7.00
2023-04-11T07:46:36.693Z,7.10
2023-04-11T07:49:04.784Z,7.20
2023-04-11T07:51:31.729Z,7.20
2023-04-11T07:53:58.991Z,7.20
2023-04-11T07:56:26.366Z,7.30
2023-04-11T07:58:53.440Z,7.40
2023-04-11T08:01:25.688Z,7.50
2023-04-11T08:03:57.075Z,7.50
2023-04-11T08:06:24.503Z,7.70
2023-04-11T08:08:51.578Z,7.70
2023-04-11T08:11:19.032Z,7.70
2023-04-11T08:13:46.320Z,7.70
2023-04-11T08:16:15.072Z,7.80
2023-04-11T08:18:42.751Z,7.90
2023-04-11T08:21:11.506Z,8.00
2023-04-11T08:23:42.776Z,8.10
2023-04-11T08:26:10.794Z,8.20
2023-04-11T08:28:37.699Z,8.20
2023-04-11T08:31:05.605Z,8.30
2023-04-11T08:33:33.825Z,8.30
2023-04-11T08:36:01.186Z,8.40
2023-04-11T08:38:28.422Z,8.50
2023-04-11T08:40:56.265Z,8.50
2023-04-11T08:43:23.648Z,8.60
2023-04-11T08:45:50.900Z,8.50
2023-04-11T08:48:19.570Z,8.60
2023-04-11T08:50:46.543Z,8.60
2023-04-11T08:53:14.568Z,8.60
2023-04-11T08:55:48.506Z,8.70
2023-04-11T08:58:15.538Z,8.80
2023-04-11T09:00:42.656Z,8.90
2023-04-11T09:03:12.054Z,9.00
2023-04-11T09:05:48.637Z,8.90
2023-04-11T09:08:17.246Z,8.90
2023-04-11T09:10:45.732Z,9.10
2023-04-11T09:13:26.068Z,9.10
2023-04-11T09:16:12.439Z,9.20
2023-04-11T09:18:47.052Z,9.40
2023-04-11T09:21:15.648Z,9.40
2023-04-11T09:23:42.959Z,9.40
2023-04-11T09:26:13.051Z,9.50
2023-04-11T09:28:44.811Z,9.60
2023-04-11T09:31:14.819Z,9.60
2023-04-11T09:33:56.936Z,9.50
2023-04-11T09:36:28.998Z,9.70
2023-04-11T09:38:56.192Z,9.70
2023-04-11T09:41:33.860Z,9.80
2023-04-11T09:44:01.432Z,10.00
2023-04-11T09:46:28.715Z,10.00
2023-04-11T09:48:57.067Z,10.10
2023-04-11T09:53:55.838Z,10.20
2023-04-11T09:56:24.150Z,10.40
2023-04-11T09:58:52.093Z,10.60
2023-04-11T10:01:20.463Z,10.60
2023-04-11T10:03:51.080Z,10.70
2023-04-11T10:06:31.507Z,10.80
2023-04-11T10:09:13.169Z,10.80
2023-04-11T10:11:44.334Z,11.10
2023-04-11T10:14:39.266Z,11.30
2023-04-11T10:17:21.972Z,11.20
2023-04-11T10:19:54.880Z,11.30
2023-04-11T10:22:50.780Z,11.50
2023-04-11T10:25:18.382Z,11.60
2023-04-11T10:28:01.397Z,11.80
2023-04-11T10:30:40.601Z,11.90
2023-04-11T10:33:23.664Z,12.60
2023-04-11T10:36:10.872Z,13.10
2023-04-11T10:38:44.016Z,13.20
2023-04-11T10:41:33.925Z,13.50
2023-04-11T10:44:25.402Z,13.70
2023-04-11T10:46:55.894Z,13.70
2023-04-11T10:49:41.036Z,13.40
2023-04-11T10:52:25.506Z,13.00
2023-04-11T10:54:55.441Z,12.90
2023-04-11T10:57:23.178Z,13.10
2023-04-11T10:59:50.279Z,13.50
2023-04-11T11:02:22.337Z,13.80
2023-04-11T11:04:50.131Z,13.70
2023-04-11T11:07:17.559Z,13.50
2023-04-11T11:09:51.380Z,13.70
2023-04-11T11:12:18.648Z,13.40
2023-04-11T11:14:47.109Z,13.60
2023-04-11T11:17:17.235Z,13.90
2023-04-11T11:19:45.936Z,13.70
2023-04-11T11:22:25.978Z,14.30
2023-04-11T11:24:53.288Z,14.30
2023-04-11T11:27:24.925Z,13.80
2023-04-11T11:29:53.970Z,14.00
2023-04-11T11:32:28.369Z,13.90
2023-04-11T11:34:57.675Z,14.20
2023-04-11T11:37:25.058Z,14.20
2023-04-11T11:39:52.289Z,13.90
2023-04-11T11:42:22.766Z,13.80
2023-04-11T11:44:49.699Z,13.90
2023-04-11T11:47:16.838Z,14.90
2023-04-11T11:49:54.948Z,15.50
2023-04-11T11:52:37.081Z,15.30
2023-04-11T11:55:11.422Z,15.60
2023-04-11T11:57:43.946Z,16.00
2023-04-11T12:00:11.816Z,15.50
2023-04-11T12:02:40.848Z,15.60
2023-04-11T12:05:14.358Z,15.20
2023-04-11T12:07:41.518Z,15.50
2023-04-11T12:10:11.990Z,15.30
2023-04-11T12:12:43.969Z,15.60
2023-04-11T12:15:23.317Z,15.60
2023-04-11T12:17:56.234Z,15.20
2023-04-11T12:20:24.353Z,15.30
2023-04-11T12:22:53.698Z,15.10
2023-04-11T12:25:22.064Z,14.90
2023-04-11T12:27:49.024Z,14.80
2023-04-11T12:30:16.295Z,14.60
2023-04-11T12:32:45.924Z,13.80
2023-04-11T12:35:13.398Z,13.60
2023-04-11T12:37:40.615Z,13.10
2023-04-11T12:40:14.736Z,11.30
2023-04-11T12:42:49.438Z,10.40
2023-04-11T12:45:26.168Z,10.50
2023-04-11T12:47:53.556Z,10.70
2023-04-11T12:50:23.646Z,10.90
2023-04-11T12:52:55.560Z,11.30
2023-04-11T12:55:23.532Z,11.80
2023-04-11T12:57:58.677Z,12.40
2023-04-11T13:00:26.453Z,13.60
2023-04-11T13:02:53.554Z,13.90
2023-04-11T13:05:22.172Z,12.70
2023-04-11T13:07:49.090Z,12.80
2023-04-11T13:10:16.506Z,14.00
2023-04-11T13:12:45.017Z,14.30
2023-04-11T13:15:15.211Z,15.50
2023-04-11T13:17:42.418Z,15.80
2023-04-11T13:20:10.709Z,15.60
2023-04-11T13:22:44.373Z,15.20
2023-04-11T13:25:12.442Z,14.50
2023-04-11T13:27:40.223Z,14.10
2023-04-11T13:30:08.754Z,14.00
2023-04-11T13:32:36.285Z,13.90
2023-04-11T13:35:04.088Z,13.90
2023-04-11T13:37:35.561Z,14.00
2023-04-11T13:40:02.909Z,14.10
2023-04-11T13:42:29.835Z,14.30
2023-04-11T13:44:56.734Z,14.60
2023-04-11T13:47:29.260Z,15.30
2023-04-11T13:49:56.189Z,16.50
2023-04-11T13:52:23.887Z,18.10
2023-04-11T13:54:50.771Z,19.90
2023-04-11T13:57:19.702Z,22.10
2023-04-11T13:59:50.438Z,21.60
2023-04-11T14:02:17.340Z,20.60
2023-04-11T14:04:44.225Z,19.20
2023-04-11T14:07:12.738Z,18.20
2023-04-11T14:09:39.676Z,18.00
2023-04-11T14:12:06.776Z,20.00
2023-04-11T14:14:33.782Z,22.40
2023-04-11T14:17:01.166Z,24.10
2023-04-11T14:19:28.148Z,25.80
2023-04-11T14:21:55.338Z,27.10
2023-04-11T14:24:22.484Z,25.70
2023-04-11T14:26:50.256Z,22.50
2023-04-11T14:29:17.694Z,23.70
2023-04-11T14:31:44.711Z,23.50
2023-04-11T14:34:11.678Z,23.90
2023-04-11T14:36:38.949Z,23.90
2023-04-11T14:39:05.985Z,20.30
2023-04-11T14:41:33.206Z,20.10
2023-04-11T14:44:00.206Z,19.90
2023-04-11T14:46:27.983Z,21.20
2023-04-11T14:48:54.995Z,21.60
2023-04-11T14:51:23.970Z,21.80
2023-04-11T14:53:55.321Z,22.40
2023-04-11T14:56:23.404Z,21.50
2023-04-11T14:58:51.761Z,20.80
2023-04-11T15:01:20.184Z,21.70
2023-04-11T15:03:47.263Z,22.60
2023-04-11T15:06:14.438Z,22.00
2023-04-11T15:08:41.590Z,21.10
2023-04-11T15:11:08.636Z,21.60
2023-04-11T15:13:35.608Z,20.90
2023-04-11T15:16:06.657Z,21.50
2023-04-11T15:18:33.871Z,21.20
2023-04-11T15:21:03.287Z,20.50
2023-04-11T15:23:30.513Z,20.30
2023-04-11T15:26:02.701Z,19.70
2023-04-11T15:28:34.557Z,18.90
2023-04-11T15:31:02.657Z,19.10
2023-04-11T15:33:32.042Z,19.70
2023-04-11T15:36:00.756Z,19.70
2023-04-11T15:38:28.730Z,19.20
2023-04-11T15:40:58.412Z,17.60
2023-04-11T15:43:25.910Z,17.70
2023-04-11T15:45:53.744Z,17.50
2023-04-11T15:48:21.135Z,17.80
2023-04-11T15:50:48.101Z,17.80
2023-04-11T15:53:15.024Z,17.30
2023-04-11T15:55:42.788Z,16.70
2023-04-11T15:58:10.393Z,16.90
2023-04-11T16:00:38.660Z,16.60
2023-04-11T16:03:10.784Z,16.80
2023-04-11T16:05:41.885Z,16.10
2023-04-11T16:08:08.995Z,16.20
2023-04-11T16:10:36.716Z,15.90
2023-04-11T16:13:03.653Z,15.60
2023-04-11T16:15:30.822Z,14.70
2023-04-11T16:17:57.846Z,15.20
2023-04-11T16:20:25.426Z,15.10
2023-04-11T16:22:52.284Z,14.30
2023-04-11T16:25:21.451Z,14.20
2023-04-11T16:27:51.489Z,13.80
2023-04-11T16:30:18.611Z,13.90
2023-04-11T16:32:45.604Z,14.00
2023-04-11T16:35:12.557Z,14.30
2023-04-11T16:37:40.055Z,14.10
2023-04-11T16:40:13.809Z,14.30
2023-04-11T16:42:40.973Z,13.80
2023-04-11T16:45:09.996Z,13.70
2023-04-11T16:47:37.230Z,13.60
2023-04-11T16:50:05.940Z,13.20
2023-04-11T16:52:33.910Z,13.30
2023-04-11T16:55:00.993Z,13.10
2023-04-11T16:57:28.053Z,13.00
2023-04-11T16:59:54.947Z,13.00
2023-04-11T17:02:22.193Z,13.00
2023-04-11T17:04:49.376Z,12.70
2023-04-11T17:07:16.323Z,12.70
2023-04-11T17:09:43.297Z,12.80
2023-04-11T17:12:10.571Z,12.90
2023-04-11T17:14:37.971Z,12.90
2023-04-11T17:17:04.963Z,12.80
2023-04-11T17:19:32.116Z,12.70
2023-04-11T17:21:59.013Z,12.50
2023-04-11T17:24:26.539Z,12.60
2023-04-11T17:26:53.751Z,12.30
2023-04-11T17:29:20.782Z,12.10
2023-04-11T17:31:47.953Z,12.00
2023-04-11T17:34:15.117Z,11.90
2023-04-11T17:36:43.079Z,11.70
2023-04-11T17:39:17.093Z,11.80
2023-04-11T17:41:45.520Z,11.40
2023-04-11T17:44:13.001Z,11.50
2023-04-11T17:46:40.250Z,11.50
2023-04-11T17:49:07.464Z,11.60
2023-04-11T17:51:34.694Z,11.60
2023-04-11T17:54:02.208Z,11.60
2023-04-11T17:56:29.560Z,11.60
2023-04-11T17:58:56.647Z,11.50
2023-04-11T18:01:25.025Z,11.60
2023-04-11T18:03:52.169Z,11.60
2023-04-11T18:06:19.575Z,11.60
2023-04-11T18:08:51.431Z,11.50
2023-04-11T18:11:19.707Z,11.50
2023-04-11T18:13:53.862Z,11.40
2023-04-11T18:16:21.511Z,11.40
2023-04-11T18:18:48.863Z,11.30
2023-04-11T18:21:16.904Z,11.30
2023-04-11T18:23:43.850Z,11.30
2023-04-11T18:26:11.101Z,11.20
2023-04-11T18:28:38.249Z,11.20
2023-04-11T18:31:05.745Z,11.10
2023-04-11T18:33:33.908Z,11.20
2023-04-11T18:36:01.719Z,11.20
2023-04-11T18:38:29.076Z,11.10
2023-04-11T18:40:56.715Z,11.10
2023-04-11T18:43:25.095Z,11.00
2023-04-11T18:45:52.787Z,10.90
2023-04-11T18:48:19.737Z,10.90
2023-04-11T18:50:48.789Z,10.80
2023-04-11T18:53:16.294Z,10.70
2023-04-11T18:55:43.516Z,10.70
2023-04-11T18:58:12.993Z,10.60
2023-04-11T19:00:42.545Z,10.60
2023-04-11T19:03:15.706Z,10.60
2023-04-11T19:05:45.170Z,10.60
2023-04-11T19:08:12.277Z,10.60
2023-04-11T19:10:39.532Z,10.50
2023-04-11T19:13:06.969Z,10.60
2023-04-11T19:15:33.951Z,10.60
2023-04-11T19:18:01.921Z,10.50
2023-04-11T19:20:29.785Z,10.50
2023-04-11T19:22:57.096Z,10.50
2023-04-11T19:25:24.491Z,10.50
2023-04-11T19:27:51.624Z,10.40
2023-04-11T19:30:18.526Z,10.40
2023-04-11T19:32:47.487Z,10.40
2023-04-11T19:35:15.122Z,10.40
2023-04-11T19:37:42.850Z,10.40
2023-04-11T19:40:16.644Z,10.30
2023-04-11T19:42:45.007Z,10.30
2023-04-11T19:45:12.697Z,10.30
2023-04-11T19:47:41.103Z,10.20
2023-04-11T19:50:13.332Z,10.20
2023-04-11T19:52:41.668Z,10.20
2023-04-11T19:55:09.519Z,10.10
2023-04-11T19:57:39.019Z,10.10
2023-04-11T20:00:16.388Z,10.20
2023-04-11T20:02:48.623Z,10.10
2023-04-11T20:05:19.549Z,10.10
2023-04-11T20:07:46.950Z,10.00
2023-04-11T20:10:15.014Z,10.00
2023-04-11T20:12:42.013Z,10.00
2023-04-11T20:15:09.998Z,9.90
2023-04-11T20:17:36.972Z,10.00
2023-04-11T20:20:08.647Z,9.90
2023-04-11T20:22:39.134Z,10.00
2023-04-11T20:25:08.243Z,9.90
2023-04-11T20:27:35.201Z,9.90
2023-04-11T20:30:07.935Z,9.90
2023-04-11T20:32:34.931Z,9.80
2023-04-11T20:35:02.067Z,9.80
2023-04-11T20:37:35.308Z,9.80
2023-04-11T20:40:03.998Z,9.80
2023-04-11T20:42:31.975Z,9.90
2023-04-11T20:45:10.426Z,9.90
2023-04-11T20:47:38.475Z,9.90
2023-04-11T20:50:10.855Z,9.90
2023-04-11T20:52:38.687Z,9.80
2023-04-11T20:55:06.156Z,9.80
2023-04-11T20:57:33.748Z,9.80
2023-04-11T21:00:01.538Z,9.80
2023-04-11T21:02:29.388Z,9.80
2023-04-11T21:04:56.407Z,9.80
2023-04-11T21:07:23.416Z,9.80
2023-04-11T21:09:50.711Z,9.80
2023-04-11T21:12:17.562Z,9.70
2023-04-11T21:14:44.488Z,9.70
2023-04-11T21:17:11.508Z,9.70
2023-04-11T21:19:38.775Z,9.70
2023-04-11T21:22:06.526Z,9.60
2023-04-11T21:24:34.788Z,9.60
2023-04-11T21:27:02.563Z,9.50
2023-04-11T21:29:29.706Z,9.50
2023-04-11T21:31:59.278Z,9.40
2023-04-11T21:34:27.592Z,9.40
2023-04-11T21:36:54.446Z,9.30
2023-04-11T21:39:21.388Z,9.20
2023-04-11T21:41:48.261Z,9.20
2023-04-11T21:44:15.164Z,9.20
2023-04-11T21:46:42.748Z,9.10
2023-04-11T21:49:09.656Z,9.10
2023-04-11T21:51:36.621Z,9.00
2023-04-11T21:54:06.490Z,8.90
2023-04-11T21:56:33.593Z,8.90
2023-04-11T21:59:00.714Z,8.80
2023-04-11T22:01:29.259Z,8.80
2023-04-11T22:03:56.511Z,8.80
2023-04-11T22:06:26.609Z,8.70
2023-04-11T22:08:53.828Z,8.70
2023-04-11T22:11:20.809Z,8.70
2023-04-11T22:13:47.751Z,8.70
2023-04-11T22:16:14.761Z,8.70
2023-04-11T22:18:47.442Z,8.70
2023-04-11T22:21:19.559Z,8.70
2023-04-11T22:23:55.978Z,8.70
2023-04-11T22:26:34.274Z,8.60
2023-04-11T22:29:05.918Z,8.60
2023-04-11T22:31:38.602Z,8.60
2023-04-11T22:34:08.384Z,8.50
2023-04-11T22:36:35.936Z,8.50
2023-04-11T22:39:07.027Z,8.50
2023-04-11T22:41:35.460Z,8.50
2023-04-11T22:44:03.042Z,8.40
2023-04-11T22:46:38.755Z,8.30
2023-04-11T22:49:06.810Z,8.30
2023-04-11T22:51:33.784Z,8.30
2023-04-11T22:54:01.234Z,8.30
2023-04-11T22:56:28.326Z,8.30
2023-04-11T22:58:55.469Z,8.30
2023-04-11T23:01:22.504Z,8.30
2023-04-11T23:03:49.663Z,8.30
2023-04-11T23:06:17.336Z,8.30
2023-04-11T23:08:44.294Z,8.30
2023-04-11T23:11:11.582Z,8.20
2023-04-11T23:13:38.525Z,8.30
2023-04-11T23:16:06.189Z,8.30
2023-04-11T23:18:33.095Z,8.30
2023-04-11T23:21:00.186Z,8.30
2023-04-11T23:23:27.952Z,8.30
2023-04-11T23:25:54.879Z,8.30
2023-04-11T23:28:24.152Z,8.30
2023-04-11T23:30:51.113Z,8.30
2023-04-11T23:33:18.524Z,8.30
2023-04-11T23:35:45.436Z,8.30
2023-04-11T23:38:13.572Z,8.30
2023-04-11T23:40:40.444Z,8.30
2023-04-11T23:43:08.101Z,8.30
2023-04-11T23:45:35.109Z,8.30
2023-04-11T23:48:02.106Z,8.30
2023-04-11T23:50:29.148Z,8.30
2023-04-11T23:52:56.021Z,8.30
2023-04-11T23:55:23.577Z,8.20
2023-04-11T23:57:50.578Z,8.20
